In Rescue
 
Open Full Screen Window  High Contrast Mode
Wind Gusting 00 knots
10
November 29, 2022 8:28 AM CST
Weather Information
Wind Direction
  280 °
Wind Speed
  10 kt (12 mph)
Wind Gust
  00 kt (0 mph)
Altimeter
29.75 in
Visibility
10 SM
Temperature
-08° C
18° F
Dewpoint
-12° C
10° F
Humidity
73%
1hr Rain Fall
00.00 in.
24hr Rain Fall
00.00 in.
Sky Condition
Clear
VFR

METAR KFFM 291428Z AUTO 28010KT 10SM CLR M08/M12 A2975 RMK AO2

FAA Disclaimer: The data displayed is for advisory purposes only and is not to be used for flight planning or operations.